Latest Weather Observations for Perth

IDW60901

Issued at 8:31 am WST Thursday 21 June 2018 (issued every 10 minutes, with the page automatically refreshed every 10 minutes)

About weather observations | Map of Perth area stations | Latest observations for Perth area | Other Formats
Station Details ID: 009225 Name: PERTH METRO Lat: -31.92 Lon: 115.87 Height: 24.9 m
Data from the previous 72 hours. | See also: Recent months at Perth
Date/Time
WST
Temp
°C
App
Temp
°C
Dew
Point
°C
Rel
Hum
%
Delta-T
°C
Wind Press
QNH
hPa
Press
MSL
hPa
Rain since
9am
mm
Dir  Spd
km/h
Gust
km/h
Spd
kts
Gust
kts
21/08:30am 12.1 11.6 11.9 99 0.1 NE 6 7 3 4 1029.3 1029.3 0.0
21/08:00am 11.4 10.6 11.2 99 0.1 NE 6 7 3 4 1029.1 1029.1 0.0
21/07:30am 11.3 11.7 11.1 99 0.1 CALM 0 6 0 3 1029.0 1029.0 0.0
21/07:00am 11.1 11.4 10.9 99 0.1 CALM 0 6 0 3 1028.7 1028.7 0.0
21/06:30am 10.9 11.1 10.7 99 0.1 CALM 0 0 0 0 1028.5 1028.5 0.0
21/06:00am 10.3 10.4 10.1 99 0.1 CALM 0 0 0 0 1028.3 1028.3 0.0
21/05:30am 9.7 9.6 9.6 99 0.0 CALM 0 0 0 0 1028.1 1028.1 0.0
21/05:00am 10.3 10.4 10.1 99 0.1 CALM 0 0 0 0 1028.2 1028.2 0.0
21/04:30am 10.7 9.8 10.5 99 0.1 NE 6 9 3 5 1028.0 1028.0 0.0
21/04:00am 11.1 10.3 10.9 99 0.1 NE 6 7 3 4 1028.1 1028.1 0.0
21/03:30am 11.5 10.8 11.3 99 0.1 NE 6 11 3 6 1028.3 1028.3 0.0
21/03:00am 11.8 11.2 11.6 99 0.1 NE 6 9 3 5 1028.3 1028.3 0.0
21/02:30am 11.5 11.9 11.3 99 0.1 CALM 0 4 0 2 1028.3 1028.3 0.0
21/02:00am 11.7 12.2 11.5 99 0.1 CALM 0 2 0 1 1028.4 1028.4 0.0
21/01:30am 11.8 12.3 11.6 99 0.1 CALM 0 0 0 0 1028.4 1028.4 0.0
21/01:00am 11.8 12.3 11.5 98 0.2 CALM 0 0 0 0 1028.3 1028.3 0.0
21/12:30am 11.7 12.1 11.2 97 0.3 CALM 0 0 0 0 1028.3 1028.3 0.0
21/12:00am 12.6 13.3 12.1 97 0.3 CALM 0 0 0 0 1028.4 1028.4 0.0
 
Date/Time
WST
Temp
°C
App
Temp
°C
Dew
Point
°C
Rel
Hum
%
Delta-T
°C
Wind Press
QNH
hPa
Press
MSL
hPa
Rain since
9am
mm
Dir  Spd
km/h
Gust
km/h
Spd
kts
Gust
kts
20/11:30pm 13.4 14.3 12.9 97 0.3 CALM 0 6 0 3 1028.6 1028.6 0.0
20/11:00pm 13.9 14.3 13.6 98 0.2 N 4 6 2 3 1028.9 1028.9 0.0
20/10:30pm 14.1 15.3 13.8 98 0.2 CALM 0 0 0 0 1029.0 1029.0 0.0
20/10:00pm 13.6 13.8 13.1 97 0.3 N 4 6 2 3 1028.8 1028.8 0.0
20/09:30pm 13.3 14.1 12.7 96 0.3 CALM 0 0 0 0 1029.0 1029.0 0.0
20/09:00pm 13.2 14.0 12.4 95 0.4 CALM 0 0 0 0 1028.9 1028.9 0.0
20/08:30pm 13.3 14.1 12.4 94 0.5 CALM 0 0 0 0 1028.9 1028.9 0.0
20/08:00pm 13.8 14.6 12.5 92 0.7 CALM 0 0 0 0 1028.7 1028.7 0.0
20/07:30pm 14.6 15.6 13.3 92 0.7 CALM 0 0 0 0 1028.4 1028.4 0.0
20/07:00pm 14.7 15.6 12.9 89 1.0 CALM 0 0 0 0 1028.2 1028.2 0.0
20/06:30pm 15.5 16.5 13.3 87 1.2 CALM 0 0 0 0 1027.8 1027.8 0.0
20/06:00pm 15.1 15.7 13.1 88 1.1 N 2 7 1 4 1027.6 1027.6 0.0
20/05:30pm 15.7 15.8 12.8 83 1.6 N 4 7 2 4 1027.3 1027.3 0.0
20/05:00pm 16.9 16.6 12.6 76 2.4 N 6 9 3 5 1027.0 1027.0 0.0
20/04:30pm 17.7 17.2 12.8 73 2.7 N 7 9 4 5 1027.0 1027.0 0.0
20/04:00pm 18.3 18.0 13.2 72 2.9 N 7 13 4 7 1026.7 1026.7 0.0
20/03:30pm 18.5 18.2 13.4 72 2.9 NW 7 13 4 7 1026.7 1026.7 0.0
20/03:00pm 18.7 18.7 13.6 72 2.9 NNE 6 7 3 4 1026.5 1026.5 0.0
20/02:30pm 18.8 19.1 14.9 78 2.3 NE 7 9 4 5 1026.5 1026.5 0.0
20/02:00pm 18.3 19.8 15.7 85 1.5 NE 2 6 1 3 1026.6 1026.6 0.0
20/01:30pm 17.4 17.9 15.0 86 1.4 NE 6 7 3 4 1026.9 1026.9 0.0
20/01:00pm 17.5 17.8 15.0 85 1.4 NNE 7 13 4 7 1027.0 1027.0 0.0
20/12:30pm 17.0 17.6 15.2 89 1.0 N 6 9 3 5 1027.3 1027.3 0.0
20/12:00pm 16.6 16.7 15.5 93 0.6 NE 9 17 5 9 1027.5 1027.5 0.0
20/11:30am 15.9 16.4 15.6 98 0.2 NE 7 13 4 7 1028.1 1028.1 0.0
20/11:00am 15.6 16.0 15.4 99 0.1 NE 7 13 4 7 1028.4 1028.4 0.0
20/10:30am 14.6 14.3 14.4 99 0.1 NE 9 13 5 7 1028.6 1028.6 0.0
20/10:00am 14.1 13.6 13.9 99 0.1 NNE 9 13 5 7 1028.8 1028.8 0.0
20/09:30am 13.6 14.3 13.4 99 0.1 N 2 9 1 5 1028.8 1028.8 0.0
20/09:00am 13.3 12.9 13.1 99 0.1 NNE 7 13 4 7 1028.7 1028.7 4.0
20/08:30am 12.7 11.8 12.5 99 0.1 NNE 9 13 5 7 1028.4 1028.4 4.0
20/08:00am 12.6 12.0 12.4 99 0.1 NE 7 13 4 7 1028.2 1028.2 4.0
20/07:30am 12.5 12.5 12.3 99 0.1 NNE 4 9 2 5 1027.8 1027.8 4.0
20/07:00am 12.7 12.3 12.5 99 0.1 N 6 9 3 5 1027.5 1027.5 4.0
20/06:30am 12.6 12.0 12.4 99 0.1 NNE 7 9 4 5 1027.2 1027.2 4.0
20/06:00am 12.6 12.2 12.4 99 0.1 NNE 6 7 3 4 1027.0 1027.0 4.0
20/05:30am 12.9 12.6 12.7 99 0.1 NNE 6 9 3 5 1026.7 1026.7 4.0
20/05:00am 13.2 13.0 13.0 99 0.1 NNE 6 7 3 4 1026.7 1026.7 4.0
20/04:30am 13.5 13.2 13.3 99 0.1 NNE 7 9 4 5 1026.7 1026.7 3.8
20/04:00am 13.5 13.8 13.3 99 0.1 N 4 7 2 4 1026.7 1026.7 3.8
20/03:30am 13.7 13.7 13.5 99 0.1 NNE 6 7 3 4 1026.8 1026.8 3.6
20/03:00am 13.9 13.7 13.7 99 0.1 NNE 7 17 4 9 1026.8 1026.8 3.6
20/02:30am 13.8 13.8 13.6 99 0.1 NNE 6 7 3 4 1026.8 1026.8 3.4
20/02:00am 14.0 14.4 13.8 99 0.1 NNE 4 7 2 4 1026.8 1026.8 3.4
20/01:30am 14.1 15.3 13.9 99 0.1 CALM 0 0 0 0 1026.7 1026.7 3.4
20/01:00am 14.0 14.8 13.8 99 0.1 NNE 2 7 1 4 1026.7 1026.7 2.6
20/12:30am 14.0 13.9 13.8 99 0.1 NNE 7 9 4 5 1026.7 1026.7 2.6
20/12:00am 14.0 14.1 13.8 99 0.1 NNE 6 7 3 4 1026.8 1026.8 2.6
 
Date/Time
WST
Temp
°C
App
Temp
°C
Dew
Point
°C
Rel
Hum
%
Delta-T
°C
Wind Press
QNH
hPa
Press
MSL
hPa
Rain since
9am
mm
Dir  Spd
km/h
Gust
km/h
Spd
kts
Gust
kts
19/11:30pm 13.9 13.9 13.7 99 0.1 NNE 6 9 3 5 1026.9 1026.9 2.6
19/11:00pm 14.1 13.6 13.8 98 0.2 NNE 9 11 5 6 1027.1 1027.1 2.6
19/10:30pm 14.7 15.0 14.4 98 0.2 WSW 6 9 3 5 1027.1 1027.1 2.4
19/10:00pm 14.7 16.0 14.2 97 0.3 CALM 0 0 0 0 1026.9 1026.9 2.2
19/09:30pm 14.7 16.0 14.1 96 0.3 CALM 0 0 0 0 1026.8 1026.8 2.2
19/09:00pm 14.7 15.9 13.9 95 0.4 CALM 0 0 0 0 1026.8 1026.8 1.8
19/08:30pm 14.8 16.0 13.8 94 0.6 CALM 0 0 0 0 1026.8 1026.8 1.8
19/08:00pm 15.1 15.9 13.8 92 0.7 WSW 2 9 1 5 1026.7 1026.7 1.6
19/07:30pm 14.8 15.8 13.3 91 0.8 CALM 0 0 0 0 1026.4 1026.4 1.6
19/07:00pm 15.4 15.1 13.4 88 1.1 WSW 7 15 4 8 1026.3 1026.3 1.4
19/06:30pm 15.5 15.9 12.6 83 1.6 WSW 2 7 1 4 1026.0 1026.0 1.4
19/06:00pm 15.0 15.8 12.7 86 1.3 CALM 0 0 0 0 1025.8 1025.8 1.4
19/05:30pm 15.8 16.6 12.5 81 1.8 CALM 0 0 0 0 1025.6 1025.6 1.4
19/05:00pm 16.8 16.3 12.5 76 2.4 SW 7 13 4 7 1025.5 1025.5 1.4
19/04:30pm 17.2 16.6 13.5 79 2.1 SW 9 17 5 9 1025.3 1025.3 1.4
19/04:00pm 17.7 17.8 14.0 79 2.1 W 6 13 3 7 1025.0 1025.0 1.4
19/03:30pm 18.3 16.2 11.1 63 3.9 WSW 13 20 7 11 1024.9 1024.9 0.4
19/03:00pm 18.7 18.6 13.3 71 3.0 WSW 6 7 3 4 1024.6 1024.6 0.4
19/02:30pm 18.5 18.9 13.8 74 2.7 NNW 4 9 2 5 1024.7 1024.7 0.4
19/02:00pm 17.6 17.1 13.7 78 2.2 N 9 15 5 8 1024.6 1024.6 0.4
19/01:30pm 16.8 16.6 13.7 82 1.8 N 7 13 4 7 1024.8 1024.8 0.4
19/01:00pm 17.1 16.8 14.4 84 1.5 N 9 13 5 7 1024.9 1024.9 0.4
19/12:30pm 15.8 15.6 13.5 86 1.3 N 7 13 4 7 1025.3 1025.3 0.4
19/12:00pm 16.1 14.9 12.7 80 1.9 N 11 19 6 10 1025.6 1025.6 0.2
19/11:30am 16.2 15.1 13.1 82 1.7 NNE 11 20 6 11 1025.9 1025.9 0.2
19/11:00am 15.3 14.6 13.2 87 1.2 NNE 9 17 5 9 1026.1 1026.1 0.2
19/10:30am 14.1 13.2 12.7 91 0.8 NE 9 15 5 8 1026.1 1026.1 0.2
19/10:00am 12.4 11.2 11.6 95 0.4 NNE 9 13 5 7 1026.2 1026.2 0.2
19/09:30am 11.5 10.4 10.7 95 0.4 NNE 7 11 4 6 1026.2 1026.2 0.2
19/09:00am 10.9 9.8 9.8 93 0.6 N 6 9 3 5 1026.1 1026.1 2.4
19/08:30am 10.1 8.6 9.2 94 0.4 NE 7 11 4 6 1025.6 1025.6 1.8
19/08:00am 9.3 7.3 8.7 96 0.3 NNE 9 15 5 8 1025.4 1025.4 1.8
19/07:30am 8.8 6.7 8.2 96 0.3 NNE 9 13 5 7 1025.1 1025.1 1.8
19/07:00am 8.9 7.4 8.3 96 0.3 NE 6 9 3 5 1024.8 1024.8 1.8
19/06:30am 8.7 6.9 8.1 96 0.3 NNE 7 13 4 7 1024.2 1024.2 1.6
19/06:00am 8.4 6.2 8.0 97 0.2 NE 9 15 5 8 1023.8 1023.8 1.6
19/05:30am 8.1 6.2 7.5 96 0.3 E 7 11 4 6 1023.6 1023.6 1.6
19/05:00am 8.4 6.8 7.8 96 0.3 SE 6 9 3 5 1023.4 1023.4 1.6
19/04:30am 8.5 7.6 7.9 96 0.3 SE 2 9 1 5 1023.3 1023.3 1.6
19/04:00am 8.7 7.1 7.9 95 0.4 SE 6 7 3 4 1023.1 1023.1 1.6
19/03:30am 8.6 7.4 8.0 96 0.3 SE 4 9 2 5 1023.0 1023.0 1.4
19/03:00am 8.5 8.0 7.7 95 0.4 CALM 0 0 0 0 1023.0 1023.0 1.4
19/02:30am 8.9 8.4 8.0 94 0.4 CALM 0 0 0 0 1022.8 1022.8 1.4
19/02:00am 9.2 7.7 8.3 94 0.4 SE 6 9 3 5 1022.7 1022.7 1.4
19/01:30am 8.6 8.1 7.7 94 0.4 CALM 0 6 0 3 1022.4 1022.4 1.4
19/01:00am 8.7 7.7 7.5 92 0.6 SE 2 7 1 4 1022.3 1022.3 1.4
19/12:30am 9.6 9.2 8.2 91 0.7 CALM 0 0 0 0 1022.3 1022.3 1.4
19/12:00am 10.3 9.2 8.4 88 0.9 SE 4 9 2 5 1022.2 1022.2 1.4
 
Date/Time
WST
Temp
°C
App
Temp
°C
Dew
Point
°C
Rel
Hum
%
Delta-T
°C
Wind Press
QNH
hPa
Press
MSL
hPa
Rain since
9am
mm
Dir  Spd
km/h
Gust
km/h
Spd
kts
Gust
kts
18/11:30pm 11.3 9.6 8.3 82 1.5 W 7 13 4 7 1022.0 1022.0 1.4
18/11:00pm 11.4 9.5 7.5 77 1.9 WSW 7 15 4 8 1022.2 1022.2 1.2
18/10:30pm 10.7 9.2 8.5 86 1.1 W 6 13 3 7 1022.0 1022.0 1.0
18/10:00pm 9.7 9.1 7.3 85 1.1 CALM 0 0 0 0 1021.7 1021.7 1.0
18/09:30pm 10.8 9.0 7.1 78 1.8 W 6 11 3 6 1021.9 1021.9 1.0
18/09:00pm 10.7 10.1 7.6 81 1.5 CALM 0 4 0 2 1021.8 1021.8 1.0
18/08:30pm 12.5 10.6 6.5 67 2.9 W 6 9 3 5 1021.7 1021.7 1.0
18/08:00pm 13.2 10.7 8.3 72 2.4 W 11 19 6 10 1021.5 1021.5 1.0
18/07:30pm 12.3 10.4 9.1 81 1.6 SW 9 20 5 11 1021.1 1021.1 1.0
18/07:00pm 11.6 10.6 9.0 84 1.3 SW 4 7 2 4 1020.9 1020.9 1.0
18/06:30pm 11.7 10.4 9.1 84 1.3 SW 6 13 3 7 1020.8 1020.8 0.8
18/06:00pm 12.3 9.0 8.0 75 2.1 S 15 26 8 14 1020.4 1020.4 0.6
18/05:30pm 14.4 11.8 6.0 57 4.0 W 9 17 5 9 1019.4 1019.4 0.2
18/05:00pm 14.9 11.5 5.7 54 4.4 W 13 24 7 13 1019.2 1019.2 0.2
18/04:30pm 15.2 11.4 5.7 53 4.5 WSW 15 24 8 13 1018.4 1018.4 0.2
18/04:00pm 15.8 11.0 4.8 48 5.2 WSW 19 35 10 19 1017.6 1017.6 0.2
18/03:30pm 15.9 11.3 5.5 50 5.0 SW 19 37 10 20 1017.0 1017.0 0.2
18/03:00pm 15.7 10.6 6.2 53 4.6 WSW 22 37 12 20 1017.3 1017.3 0.2
18/02:30pm 16.1 11.0 6.0 51 4.9 WSW 22 44 12 24 1017.2 1017.2 0.2
18/02:00pm 16.5 11.6 6.9 53 4.7 WSW 22 37 12 20 1017.0 1017.0 0.2
18/01:30pm 16.1 11.1 6.3 52 4.8 WSW 22 43 12 23 1017.2 1017.2 0.2
18/01:00pm 16.1 11.2 7.1 55 4.4 WSW 22 41 12 22 1016.9 1016.9 0.2
18/12:30pm 16.2 11.2 8.2 59 4.1 WSW 24 43 13 23 1016.8 1016.8 0.2
18/12:00pm 17.2 12.9 7.8 54 4.7 WSW 20 30 11 16 1016.6 1016.6 0.0
18/11:30am 15.9 13.6 9.1 64 3.5 W 11 20 6 11 1016.5 1016.5 0.0
18/11:00am 16.1 11.0 6.0 51 4.9 WSW 22 46 12 25 1016.7 1016.7 0.0
18/10:30am 17.0 12.8 7.6 54 4.7 W 19 35 10 19 1016.3 1016.3 0.0
18/10:00am 16.7 12.2 6.8 52 4.9 WSW 20 39 11 21 1016.2 1016.1 0.0
18/09:30am 16.9 13.4 7.0 52 4.9 W 15 30 8 16 1015.6 1015.5 0.0
18/09:00am 16.1 11.9 8.3 60 4.0 WSW 20 39 11 21 1015.2 1015.1 11.2

Latest Capital City Observations: Canberra | Sydney | Melbourne | Brisbane | Adelaide | Perth | Hobart | Darwin

Other Formats:

Comma delimited format used in spreadsheet applications
http://www.bom.gov.au/fwo/IDW60901/IDW60901.94608.axf

JavaScript Object Notation format (JSON) in row-major order
http://www.bom.gov.au/fwo/IDW60901/IDW60901.94608.json